Aviation Digital Data Service (ADDS)

Output produced by METARs form (2110 UTC 08 February 2016)
found at http://aviationweather.gov/adds/metars/
 
KART 082055Z 0821/0918 05009KT P6SM SCT050 OVC100 
     FM090600 06007KT 5SM -SN OVC045 
     FM091300 05007KT P6SM VCSH OVC030 
     FM091400 06007KT P6SM OVC030